Time;durP1;ratioP1;P1;durP2;ratioP2;P2;SDS_P1;SDS_P2;PMS_P1;PMS_P2;Temp;Humidity;BMP_temperature;BMP_pressure;BME280_temperature;BME280_humidity;BME280_pressure;Samples;Min_cycle;Max_cycle;Signal;HPM_P1;HPM_P2
2023/12/27 00:01:44;;;;;;;8.23;3.63;;;;;;;;;;4969471;28;20258;-70
2023/12/27 00:04:12;;;;;;;11.60;3.95;;;;;;;;;;4957623;28;20054;-67
2023/12/27 00:06:38;;;;;;;10.55;4.43;;;;;;;;;;4972311;28;20058;-67
2023/12/27 00:09:04;;;;;;;26.02;11.55;;;;;;;;;;4992726;28;20199;-66
2023/12/27 00:11:31;;;;;;;47.20;21.25;;;;;;;;;;5008295;28;20066;-66
2023/12/27 00:13:59;;;;;;;34.53;15.40;;;;;;;;;;4968088;28;20274;-69
2023/12/27 00:16:25;;;;;;;16.08;7.45;;;;;;;;;;4972802;28;20089;-66
2023/12/27 00:18:52;;;;;;;13.35;4.60;;;;;;;;;;4993718;28;20050;-66
2023/12/27 00:21:19;;;;;;;11.15;4.30;;;;;;;;;;4978374;28;20045;-66
2023/12/27 00:23:46;;;;;;;8.88;3.40;;;;;;;;;;4986207;28;20121;-67
2023/12/27 00:26:13;;;;;;;9.35;3.08;;;;;;;;;;4966955;28;20160;-67
2023/12/27 00:28:39;;;;;;;9.07;3.47;;;;;;;;;;4997056;28;20214;-67
2023/12/27 00:31:07;;;;;;;11.38;3.65;;;;;;;;;;5008011;28;20118;-66
2023/12/27 00:33:34;;;;;;;14.38;3.95;;;;;;;;;;5009662;28;20057;-67
2023/12/27 00:36:01;;;;;;;15.38;3.50;;;;;;;;;;4982087;28;21382;-67
2023/12/27 00:38:27;;;;;;;10.55;3.92;;;;;;;;;;5019555;28;20065;-67
2023/12/27 00:40:54;;;;;;;9.20;3.45;;;;;;;;;;5000179;28;20057;-68
2023/12/27 00:43:20;;;;;;;8.70;3.47;;;;;;;;;;5004458;28;20068;-67
2023/12/27 00:45:47;;;;;;;9.15;3.38;;;;;;;;;;4991299;28;20077;-68
2023/12/27 00:48:15;;;;;;;9.52;3.92;;;;;;;;;;4999500;28;20041;-67
2023/12/27 00:50:42;;;;;;;8.27;3.60;;;;;;;;;;5000401;28;20053;-67
2023/12/27 00:53:08;;;;;;;9.18;3.78;;;;;;;;;;5006761;28;20049;-66
2023/12/27 00:55:35;;;;;;;8.32;3.55;;;;;;;;;;4998274;28;20115;-66
2023/12/27 00:58:02;;;;;;;12.32;3.65;;;;;;;;;;4985167;28;20278;-65
2023/12/27 01:00:29;;;;;;;9.07;3.60;;;;;;;;;;4996139;28;20132;-65
2023/12/27 01:02:55;;;;;;;11.18;3.60;;;;;;;;;;4989426;28;20104;-65
2023/12/27 01:05:23;;;;;;;10.75;3.33;;;;;;;;;;4978498;28;20152;-66
2023/12/27 01:07:50;;;;;;;9.10;3.38;;;;;;;;;;4981795;28;20069;-65
2023/12/27 01:10:16;;;;;;;7.72;3.38;;;;;;;;;;5012931;28;20060;-65
2023/12/27 01:12:43;;;;;;;9.82;3.58;;;;;;;;;;4999546;28;20080;-66
2023/12/27 01:15:10;;;;;;;14.35;3.72;;;;;;;;;;4988592;28;20065;-65
2023/12/27 01:17:40;;;;;;;12.02;3.92;;;;;;;;;;5021577;28;20069;-65
2023/12/27 01:20:08;;;;;;;8.88;3.95;;;;;;;;;;4999582;28;21075;-66
2023/12/27 01:22:36;;;;;;;9.70;3.38;;;;;;;;;;5013998;28;20065;-65
2023/12/27 01:25:02;;;;;;;11.15;3.58;;;;;;;;;;5006420;28;20154;-66
2023/12/27 01:27:29;;;;;;;11.65;3.85;;;;;;;;;;5012808;28;20132;-67
2023/12/27 01:29:56;;;;;;;7.13;3.22;;;;;;;;;;5021887;28;20049;-66
2023/12/27 01:32:23;;;;;;;10.45;3.40;;;;;;;;;;4993657;28;20601;-69
2023/12/27 01:34:49;;;;;;;9.77;3.40;;;;;;;;;;5010128;28;20123;-68
2023/12/27 01:37:16;;;;;;;9.43;3.25;;;;;;;;;;4999418;28;20080;-68
2023/12/27 01:39:44;;;;;;;9.70;3.20;;;;;;;;;;4998070;28;20049;-69
2023/12/27 01:42:10;;;;;;;10.50;4.55;;;;;;;;;;4999123;28;23209;-68
2023/12/27 01:44:37;;;;;;;11.48;4.88;;;;;;;;;;4986583;28;20049;-69
2023/12/27 01:47:04;;;;;;;13.25;4.65;;;;;;;;;;5028443;28;20085;-69
2023/12/27 01:49:31;;;;;;;21.48;7.57;;;;;;;;;;5000623;28;20049;-67
2023/12/27 01:51:58;;;;;;;11.55;4.43;;;;;;;;;;4994648;28;20105;-66
2023/12/27 01:54:25;;;;;;;6.45;2.83;;;;;;;;;;5021529;28;20053;-66
2023/12/27 01:56:53;;;;;;;10.02;3.22;;;;;;;;;;4998568;28;20052;-67
2023/12/27 01:59:19;;;;;;;10.77;3.53;;;;;;;;;;5022347;28;20068;-64
2023/12/27 02:01:47;;;;;;;9.20;3.47;;;;;;;;;;5014828;28;20045;-65
2023/12/27 02:04:13;;;;;;;12.65;3.80;;;;;;;;;;5009866;28;20515;-69
2023/12/27 02:06:40;;;;;;;11.45;3.58;;;;;;;;;;4998559;28;20053;-69
2023/12/27 02:09:07;;;;;;;8.23;3.38;;;;;;;;;;4994153;28;20152;-65
2023/12/27 02:11:34;;;;;;;7.82;3.40;;;;;;;;;;5004443;28;20125;-66
2023/12/27 02:14:02;;;;;;;8.38;3.28;;;;;;;;;;5020576;28;20106;-67
2023/12/27 02:16:29;;;;;;;9.00;3.25;;;;;;;;;;4994651;28;20108;-66
2023/12/27 02:18:57;;;;;;;8.00;2.97;;;;;;;;;;4993000;28;20052;-65
2023/12/27 02:21:25;;;;;;;7.38;2.60;;;;;;;;;;4998986;28;20077;-65
2023/12/27 02:23:55;;;;;;;;;;;;;;;;;;4987149;28;20128;-64
2023/12/27 02:26:23;;;;;;;10.38;3.00;;;;;;;;;;5008425;28;20015;-66
2023/12/27 02:28:50;;;;;;;11.55;2.97;;;;;;;;;;4983862;28;20563;-67
2023/12/27 02:31:17;;;;;;;9.77;3.15;;;;;;;;;;5019524;28;20137;-66
2023/12/27 02:33:44;;;;;;;10.50;3.30;;;;;;;;;;4995278;28;20057;-68
2023/12/27 02:36:11;;;;;;;7.68;3.15;;;;;;;;;;4994426;28;20053;-67
2023/12/27 02:38:38;;;;;;;7.13;3.28;;;;;;;;;;4999179;28;21476;-67
2023/12/27 02:41:04;;;;;;;7.50;3.67;;;;;;;;;;5019702;28;20193;-67
2023/12/27 02:43:33;;;;;;;10.55;3.78;;;;;;;;;;4994736;28;20133;-67
2023/12/27 02:46:00;;;;;;;12.15;3.65;;;;;;;;;;4999764;28;20285;-68
2023/12/27 02:48:26;;;;;;;9.77;3.67;;;;;;;;;;5031799;28;20286;-66
2023/12/27 02:50:53;;;;;;;9.18;3.42;;;;;;;;;;4992248;28;20057;-65
2023/12/27 02:53:20;;;;;;;11.52;3.42;;;;;;;;;;4985870;28;20049;-65
2023/12/27 02:55:47;;;;;;;13.93;3.45;;;;;;;;;;4988323;28;20049;-68
2023/12/27 02:58:14;;;;;;;9.70;3.65;;;;;;;;;;5006400;28;20053;-66
2023/12/27 03:00:42;;;;;;;7.25;3.17;;;;;;;;;;4995353;28;20077;-66
2023/12/27 03:03:10;;;;;;;8.52;3.33;;;;;;;;;;5008012;28;20164;-66
2023/12/27 03:05:37;;;;;;;9.82;3.42;;;;;;;;;;4998204;28;20125;-66
2023/12/27 03:08:04;;;;;;;9.30;3.38;;;;;;;;;;4988449;28;20121;-67
2023/12/27 03:10:31;;;;;;;9.32;3.45;;;;;;;;;;5018313;28;20049;-66
2023/12/27 03:12:57;;;;;;;10.95;3.63;;;;;;;;;;5009194;28;20661;-66
2023/12/27 03:15:24;;;;;;;8.88;3.22;;;;;;;;;;5002851;28;20061;-67
2023/12/27 03:17:52;;;;;;;10.18;3.22;;;;;;;;;;5006799;28;20081;-68
2023/12/27 03:20:19;;;;;;;11.95;3.00;;;;;;;;;;5026281;28;20096;-67
2023/12/27 03:22:45;;;;;;;8.13;2.83;;;;;;;;;;4997076;28;20068;-67
2023/12/27 03:25:12;;;;;;;14.25;3.28;;;;;;;;;;4979608;28;20053;-66
2023/12/27 03:27:39;;;;;;;7.22;3.00;;;;;;;;;;4997755;28;20045;-65
2023/12/27 03:30:07;;;;;;;9.52;3.40;;;;;;;;;;4978410;28;20053;-68
2023/12/27 03:32:34;;;;;;;11.40;3.42;;;;;;;;;;4962184;28;20152;-67
2023/12/27 03:35:02;;;;;;;10.50;3.40;;;;;;;;;;4973809;28;20168;-68
2023/12/27 03:37:29;;;;;;;10.38;2.92;;;;;;;;;;4973110;28;20054;-66
2023/12/27 03:39:55;;;;;;;9.00;2.88;;;;;;;;;;4979478;28;20058;-68
2023/12/27 03:42:22;;;;;;;8.82;3.00;;;;;;;;;;4973643;28;20136;-67
2023/12/27 03:44:52;;;;;;;11.73;3.00;;;;;;;;;;4991972;28;20198;-67
2023/12/27 03:47:19;;;;;;;11.75;3.22;;;;;;;;;;4994597;28;20112;-66
2023/12/27 03:49:46;;;;;;;6.97;2.92;;;;;;;;;;4976844;28;20233;-66
2023/12/27 03:52:17;;;;;;;8.77;3.20;;;;;;;;;;4994216;28;20050;-67
2023/12/27 03:54:44;;;;;;;9.43;3.30;;;;;;;;;;4984969;28;20050;-66
2023/12/27 03:57:12;;;;;;;10.68;3.08;;;;;;;;;;4991697;28;20065;-67
2023/12/27 03:59:38;;;;;;;10.43;3.40;;;;;;;;;;4978748;28;20050;-65
2023/12/27 04:02:05;;;;;;;8.65;3.58;;;;;;;;;;4971671;28;20148;-66
2023/12/27 04:04:33;;;;;;;11.88;3.00;;;;;;;;;;4963776;28;20137;-66
2023/12/27 04:07:00;;;;;;;12.57;3.83;;;;;;;;;;4969957;28;20205;-65
2023/12/27 04:09:28;;;;;;;9.27;3.38;;;;;;;;;;4987260;28;20049;-66
2023/12/27 04:11:55;;;;;;;10.32;3.33;;;;;;;;;;4980676;28;20050;-68
2023/12/27 04:14:23;;;;;;;12.05;3.72;;;;;;;;;;4964159;28;20049;-67
2023/12/27 04:16:50;;;;;;;;;;;;;;;;;;4986849;28;20136;-66
2023/12/27 04:19:17;;;;;;;10.63;2.95;;;;;;;;;;4975187;28;19936;-68
2023/12/27 04:21:43;;;;;;;8.60;2.83;;;;;;;;;;4984715;28;20038;-67
2023/12/27 04:24:10;;;;;;;6.68;3.10;;;;;;;;;;4959129;28;20099;-66
2023/12/27 04:26:40;;;;;;;12.27;4.15;;;;;;;;;;4978458;28;20054;-68
2023/12/27 04:29:07;;;;;;;13.50;3.58;;;;;;;;;;4988266;28;20052;-66
2023/12/27 04:31:34;;;;;;;12.48;4.50;;;;;;;;;;5003060;28;20056;-69
2023/12/27 04:34:01;;;;;;;11.40;4.13;;;;;;;;;;4987796;28;20137;-67
2023/12/27 04:36:32;;;;;;;7.88;3.50;;;;;;;;;;5035274;28;20049;-67
2023/12/27 04:38:59;;;;;;;9.73;3.25;;;;;;;;;;4989395;28;20124;-65
2023/12/27 04:41:26;;;;;;;13.13;3.17;;;;;;;;;;5031009;28;20058;-68
2023/12/27 04:43:54;;;;;;;10.48;3.95;;;;;;;;;;5014512;28;20069;-66
2023/12/27 04:46:20;;;;;;;11.43;3.67;;;;;;;;;;5000813;28;20058;-66
2023/12/27 04:48:47;;;;;;;10.55;3.55;;;;;;;;;;5001580;28;20080;-67
2023/12/27 04:51:14;;;;;;;11.80;3.22;;;;;;;;;;4999065;28;20053;-66
2023/12/27 04:53:41;;;;;;;7.63;2.72;;;;;;;;;;4984096;28;20061;-67
2023/12/27 04:56:07;;;;;;;11.38;3.53;;;;;;;;;;5000686;28;20049;-67
2023/12/27 04:58:35;;;;;;;7.55;3.17;;;;;;;;;;5009240;28;20061;-66
2023/12/27 05:01:05;;;;;;;12.50;3.67;;;;;;;;;;5004725;28;20041;-65
2023/12/27 05:03:34;;;;;;;8.98;3.22;;;;;;;;;;5030975;28;20054;-67
2023/12/27 05:06:02;;;;;;;9.05;3.85;;;;;;;;;;4994202;28;20076;-67
2023/12/27 05:08:28;;;;;;;8.35;3.22;;;;;;;;;;5001211;28;20053;-68
2023/12/27 05:10:55;;;;;;;8.60;3.22;;;;;;;;;;5017422;28;20065;-67
2023/12/27 05:13:21;;;;;;;11.90;3.35;;;;;;;;;;5017437;28;20125;-68
2023/12/27 05:15:49;;;;;;;9.05;3.67;;;;;;;;;;4993066;28;20061;-68
2023/12/27 05:18:17;;;;;;;11.25;3.92;;;;;;;;;;5002865;28;20049;-66
2023/12/27 05:20:43;;;;;;;18.20;3.65;;;;;;;;;;4998450;28;20060;-67
2023/12/27 05:23:10;;;;;;;12.85;3.63;;;;;;;;;;4993938;28;20057;-66
2023/12/27 05:25:37;;;;;;;13.20;3.30;;;;;;;;;;4996620;28;20085;-67
2023/12/27 05:28:04;;;;;;;10.48;3.80;;;;;;;;;;5012596;28;20207;-68
2023/12/27 05:30:31;;;;;;;11.07;3.40;;;;;;;;;;5000373;28;20054;-66
2023/12/27 05:32:57;;;;;;;9.07;3.42;;;;;;;;;;5001873;28;20069;-67
2023/12/27 05:35:26;;;;;;;6.90;2.90;;;;;;;;;;5023482;28;20068;-65
2023/12/27 05:37:53;;;;;;;8.75;3.45;;;;;;;;;;4999429;28;20045;-68
2023/12/27 05:40:19;;;;;;;10.00;2.88;;;;;;;;;;5000213;28;20079;-67
2023/12/27 05:42:46;;;;;;;7.15;3.13;;;;;;;;;;5003337;28;20069;-66
2023/12/27 05:45:15;;;;;;;9.57;3.20;;;;;;;;;;5018840;28;20162;-67
2023/12/27 05:47:42;;;;;;;10.20;3.72;;;;;;;;;;5020163;28;20092;-67
2023/12/27 05:50:11;;;;;;;10.73;3.05;;;;;;;;;;4999870;28;20053;-67
2023/12/27 05:52:51;;;;;;;10.35;3.28;;;;;;;;;;4997205;28;20115;-68
2023/12/27 05:55:18;;;;;;;7.20;3.03;;;;;;;;;;4938968;28;20124;-69
2023/12/27 05:57:48;;;;;;;11.02;3.35;;;;;;;;;;4991770;28;20069;-66
2023/12/27 06:00:18;;;;;;;9.98;4.03;;;;;;;;;;5000876;28;20072;-67
2023/12/27 06:02:45;;;;;;;11.18;3.90;;;;;;;;;;5024045;28;20061;-66
2023/12/27 06:05:11;;;;;;;14.88;4.55;;;;;;;;;;5004599;28;20048;-67
2023/12/27 06:07:38;;;;;;;5.90;2.75;;;;;;;;;;5000011;28;20061;-68
2023/12/27 06:10:09;;;;;;;7.45;3.38;;;;;;;;;;4983148;28;20333;-68
2023/12/27 06:12:36;;;;;;;8.77;2.97;;;;;;;;;;4999240;28;20218;-69
2023/12/27 06:15:03;;;;;;;8.68;3.13;;;;;;;;;;5016155;28;20115;-67
2023/12/27 06:17:30;;;;;;;15.50;3.42;;;;;;;;;;4996901;28;20048;-68
2023/12/27 06:19:57;;;;;;;8.57;3.20;;;;;;;;;;4993668;28;20115;-66
2023/12/27 06:22:24;;;;;;;11.48;3.17;;;;;;;;;;4995461;28;20169;-66
2023/12/27 06:24:51;;;;;;;12.85;3.60;;;;;;;;;;5022611;28;20057;-68
2023/12/27 06:27:19;;;;;;;16.88;3.88;;;;;;;;;;4992218;28;20070;-68
2023/12/27 06:29:46;;;;;;;9.05;3.40;;;;;;;;;;4994634;28;20111;-68
2023/12/27 06:32:13;;;;;;;13.45;3.63;;;;;;;;;;4994070;28;20146;-66
2023/12/27 06:34:40;;;;;;;8.25;2.97;;;;;;;;;;4995257;28;20053;-67
2023/12/27 06:37:07;;;;;;;8.00;3.30;;;;;;;;;;4995841;28;20053;-67
2023/12/27 06:39:33;;;;;;;10.00;2.53;;;;;;;;;;4991676;28;20049;-68
2023/12/27 06:42:02;;;;;;;12.85;3.17;;;;;;;;;;5007776;28;20167;-67
2023/12/27 06:44:30;;;;;;;10.65;3.08;;;;;;;;;;4996614;28;20058;-67
2023/12/27 06:46:57;;;;;;;9.40;3.25;;;;;;;;;;5020650;28;20049;-67
2023/12/27 06:49:24;;;;;;;9.65;3.50;;;;;;;;;;4999138;28;20119;-64
2023/12/27 06:51:53;;;;;;;9.70;3.10;;;;;;;;;;5009250;28;20057;-68
2023/12/27 06:54:20;;;;;;;9.45;3.42;;;;;;;;;;4989543;28;20194;-68
2023/12/27 06:56:49;;;;;;;9.65;3.17;;;;;;;;;;5019860;28;20089;-68
2023/12/27 06:59:16;;;;;;;12.25;2.75;;;;;;;;;;5000905;28;20049;-66
2023/12/27 07:01:45;;;;;;;7.20;2.97;;;;;;;;;;5012296;28;20070;-68
2023/12/27 07:04:11;;;;;;;5.80;2.42;;;;;;;;;;5007042;28;20041;-67
2023/12/27 07:06:38;;;;;;;10.65;2.47;;;;;;;;;;4992927;28;20056;-66
2023/12/27 07:09:05;;;;;;;8.63;2.63;;;;;;;;;;4990697;28;20048;-68
2023/12/27 07:11:32;;;;;;;7.25;2.40;;;;;;;;;;4992794;28;20073;-65
2023/12/27 07:13:59;;;;;;;9.80;3.03;;;;;;;;;;4981451;28;20123;-66
2023/12/27 07:16:25;;;;;;;11.43;3.08;;;;;;;;;;4997178;28;20057;-69
2023/12/27 07:18:53;;;;;;;10.65;3.60;;;;;;;;;;4997000;28;20061;-68
2023/12/27 07:21:20;;;;;;;7.25;2.70;;;;;;;;;;5028498;28;20045;-65
2023/12/27 07:23:47;;;;;;;10.65;3.03;;;;;;;;;;4987489;28;20053;-69
2023/12/27 07:26:14;;;;;;;6.43;2.25;;;;;;;;;;5010455;28;20126;-68
2023/12/27 07:28:40;;;;;;;9.93;2.60;;;;;;;;;;4994077;28;20137;-66
2023/12/27 07:31:07;;;;;;;8.63;2.78;;;;;;;;;;4981242;28;20049;-69
2023/12/27 07:33:37;;;;;;;7.78;2.97;;;;;;;;;;4975665;28;20042;-69
2023/12/27 07:36:08;;;;;;;6.18;3.13;;;;;;;;;;4991471;28;20081;-66
2023/12/27 07:38:35;;;;;;;19.33;3.40;;;;;;;;;;4992830;28;20066;-69
2023/12/27 07:41:02;;;;;;;8.00;2.75;;;;;;;;;;4978428;28;20136;-67
2023/12/27 07:43:28;;;;;;;9.35;2.95;;;;;;;;;;4964100;28;20073;-65
2023/12/27 07:45:56;;;;;;;17.52;4.72;;;;;;;;;;5003160;28;20053;-65
2023/12/27 07:48:22;;;;;;;11.32;3.33;;;;;;;;;;5005841;28;20057;-67
2023/12/27 07:50:50;;;;;;;8.23;2.85;;;;;;;;;;4978615;28;20060;-67
2023/12/27 07:53:18;;;;;;;9.15;2.95;;;;;;;;;;4997488;28;20058;-64
2023/12/27 07:55:45;;;;;;;8.45;2.97;;;;;;;;;;4973538;28;20049;-64
2023/12/27 07:58:11;;;;;;;7.75;2.53;;;;;;;;;;4969822;28;20963;-66
2023/12/27 08:00:38;;;;;;;6.95;2.55;;;;;;;;;;4996679;28;20108;-66
2023/12/27 08:03:08;;;;;;;8.00;2.53;;;;;;;;;;4981658;28;20042;-66
2023/12/27 08:05:35;;;;;;;6.10;2.58;;;;;;;;;;4969548;28;20082;-63
2023/12/27 08:08:03;;;;;;;8.55;2.75;;;;;;;;;;4971152;28;20038;-65
2023/12/27 08:10:32;;;;;;;7.82;2.70;;;;;;;;;;4981015;28;20141;-63
2023/12/27 08:12:58;;;;;;;7.20;2.85;;;;;;;;;;4977308;28;20056;-65
2023/12/27 08:15:25;;;;;;;6.18;1.95;;;;;;;;;;4974792;28;20090;-66
2023/12/27 08:17:54;;;;;;;9.65;3.05;;;;;;;;;;4995403;28;20084;-64
2023/12/27 08:20:21;;;;;;;5.95;2.85;;;;;;;;;;4980792;28;20065;-65
2023/12/27 08:22:48;;;;;;;9.13;3.13;;;;;;;;;;4975014;28;20104;-66
2023/12/27 08:25:15;;;;;;;8.38;3.28;;;;;;;;;;5009704;28;20053;-66
2023/12/27 08:27:44;;;;;;;8.57;2.67;;;;;;;;;;4975048;28;20136;-64
2023/12/27 08:30:11;;;;;;;7.05;2.95;;;;;;;;;;4990425;28;20109;-63
2023/12/27 08:32:38;;;;;;;9.32;3.30;;;;;;;;;;4991867;28;20068;-66
2023/12/27 08:35:05;;;;;;;9.02;3.10;;;;;;;;;;4972086;28;20049;-66
2023/12/27 08:37:32;;;;;;;8.52;3.13;;;;;;;;;;5006021;28;20133;-64
2023/12/27 08:39:58;;;;;;;4.82;2.60;;;;;;;;;;4987033;28;20049;-68
2023/12/27 08:42:25;;;;;;;12.02;3.03;;;;;;;;;;4991011;28;20053;-66
2023/12/27 08:44:53;;;;;;;6.38;3.03;;;;;;;;;;4965159;28;20065;-66
2023/12/27 08:47:19;;;;;;;8.38;3.22;;;;;;;;;;5010120;28;20045;-65
2023/12/27 08:49:46;;;;;;;8.10;3.13;;;;;;;;;;4983955;28;20060;-65
2023/12/27 08:52:12;;;;;;;6.22;1.98;;;;;;;;;;4982950;28;20207;-63
2023/12/27 08:54:39;;;;;;;7.75;2.67;;;;;;;;;;4986797;28;20049;-64
2023/12/27 08:57:06;;;;;;;6.57;2.63;;;;;;;;;;4990911;28;20060;-65
2023/12/27 08:59:36;;;;;;;6.93;2.97;;;;;;;;;;4988661;28;20059;-65
2023/12/27 09:02:04;;;;;;;7.40;2.88;;;;;;;;;;4991253;28;20354;-66
2023/12/27 09:04:32;;;;;;;6.57;2.35;;;;;;;;;;4982654;28;20049;-64
2023/12/27 09:06:58;;;;;;;5.55;2.28;;;;;;;;;;5016227;28;20103;-66
2023/12/27 09:09:25;;;;;;;8.30;2.85;;;;;;;;;;5000714;28;20135;-66
2023/12/27 09:11:53;;;;;;;8.07;3.10;;;;;;;;;;4989103;28;20050;-65
2023/12/27 09:14:20;;;;;;;5.97;2.53;;;;;;;;;;4957474;28;20234;-67
2023/12/27 09:16:46;;;;;;;4.75;2.40;;;;;;;;;;4944818;28;20133;-65
2023/12/27 09:19:15;;;;;;;5.53;2.20;;;;;;;;;;4965290;28;20060;-67
2023/12/27 09:21:45;;;;;;;5.50;2.42;;;;;;;;;;4993238;28;20057;-65
2023/12/27 09:24:12;;;;;;;6.53;2.53;;;;;;;;;;4963685;28;20121;-67
2023/12/27 09:26:39;;;;;;;6.00;2.10;;;;;;;;;;4982005;28;20173;-67
2023/12/27 09:29:09;;;;;;;8.88;3.10;;;;;;;;;;4991491;28;20093;-64
2023/12/27 09:31:35;;;;;;;6.10;2.80;;;;;;;;;;4998608;28;20170;-66
2023/12/27 09:34:02;;;;;;;7.18;2.92;;;;;;;;;;4984758;28;20053;-66
2023/12/27 09:36:33;;;;;;;5.22;2.33;;;;;;;;;;4995590;28;20057;-67
2023/12/27 09:39:00;;;;;;;8.75;2.70;;;;;;;;;;4998239;28;20045;-64
2023/12/27 09:41:27;;;;;;;5.53;2.55;;;;;;;;;;5000293;28;20057;-64
2023/12/27 09:43:56;;;;;;;6.78;2.80;;;;;;;;;;4991174;28;20061;-67
2023/12/27 09:46:27;;;;;;;5.05;2.47;;;;;;;;;;4989600;28;20049;-67
2023/12/27 09:48:56;;;;;;;4.60;2.35;;;;;;;;;;4994972;28;20103;-66
2023/12/27 09:51:23;;;;;;;4.97;2.55;;;;;;;;;;4997701;28;20166;-66
2023/12/27 09:53:55;;;;;;;5.55;2.40;;;;;;;;;;4981377;28;20058;-67
2023/12/27 09:56:23;;;;;;;3.58;2.00;;;;;;;;;;4998093;28;20054;-66
2023/12/27 09:58:51;;;;;;;5.57;2.37;;;;;;;;;;4997300;28;20053;-65
2023/12/27 10:01:21;;;;;;;5.82;2.15;;;;;;;;;;4991285;28;20050;-64
2023/12/27 10:03:53;;;;;;;4.97;2.55;;;;;;;;;;5020408;28;20076;-64
2023/12/27 10:06:30;;;;;;;6.45;2.33;;;;;;;;;;5001382;28;20134;-66
2023/12/27 10:08:59;;;;;;;5.20;2.40;;;;;;;;;;5008495;28;20045;-66
2023/12/27 10:11:26;;;;;;;4.93;2.38;;;;;;;;;;5021243;28;20108;-65
2023/12/27 10:13:58;;;;;;;3.20;1.83;;;;;;;;;;5028660;28;20068;-67
2023/12/27 10:16:25;;;;;;;7.38;2.58;;;;;;;;;;5004808;28;20151;-64
2023/12/27 10:18:52;;;;;;;6.75;2.05;;;;;;;;;;5001004;28;20057;-66
2023/12/27 10:21:19;;;;;;;5.32;2.28;;;;;;;;;;4998096;28;20049;-64
2023/12/27 10:23:48;;;;;;;4.80;2.10;;;;;;;;;;4995799;28;20108;-65
2023/12/27 10:26:19;;;;;;;5.65;2.40;;;;;;;;;;4991186;28;20517;-66
2023/12/27 10:28:46;;;;;;;5.38;2.10;;;;;;;;;;4993217;28;20149;-66
2023/12/27 10:31:12;;;;;;;4.97;2.08;;;;;;;;;;5020770;28;20049;-64
2023/12/27 10:33:41;;;;;;;5.60;2.45;;;;;;;;;;4986715;28;20072;-67
2023/12/27 10:36:08;;;;;;;;;;;;;;;;;;4994459;28;20294;-64
2023/12/27 10:38:35;;;;;;;5.50;2.22;;;;;;;;;;5016965;28;19929;-64
2023/12/27 10:41:04;;;;;;;4.57;2.03;;;;;;;;;;4998858;28;20112;-64
2023/12/27 10:43:33;;;;;;;4.95;2.15;;;;;;;;;;4996694;28;20061;-64
2023/12/27 10:46:00;;;;;;;6.10;2.42;;;;;;;;;;4990784;28;20041;-66
2023/12/27 10:48:33;;;;;;;4.28;2.10;;;;;;;;;;5026307;28;20065;-67
2023/12/27 10:50:59;;;;;;;8.20;2.25;;;;;;;;;;4991896;28;20056;-68
2023/12/27 10:53:31;;;;;;;4.63;2.00;;;;;;;;;;5000261;28;20099;-65
2023/12/27 10:56:02;;;;;;;3.83;1.92;;;;;;;;;;4967244;28;20049;-64
2023/12/27 10:58:31;;;;;;;4.28;2.08;;;;;;;;;;4990275;28;20052;-65
2023/12/27 11:00:59;;;;;;;4.88;1.88;;;;;;;;;;5000520;28;20085;-67
2023/12/27 11:03:29;;;;;;;7.70;1.90;;;;;;;;;;5019151;28;20053;-67
2023/12/27 11:05:56;;;;;;;5.53;2.03;;;;;;;;;;4953636;28;20053;-65
2023/12/27 11:08:24;;;;;;;3.60;1.83;;;;;;;;;;4984189;28;20042;-64
2023/12/27 11:10:54;;;;;;;5.07;2.28;;;;;;;;;;5011981;28;20061;-67
2023/12/27 11:13:25;;;;;;;5.93;2.50;;;;;;;;;;5003122;28;20049;-65
2023/12/27 11:16:00;;;;;;;9.77;4.05;;;;;;;;;;4991643;28;20207;-67
2023/12/27 11:18:31;;;;;;;6.93;2.65;;;;;;;;;;5017399;28;20056;-65
2023/12/27 11:20:58;;;;;;;9.80;1.95;;;;;;;;;;4991422;28;20046;-66
2023/12/27 11:23:25;;;;;;;5.35;1.90;;;;;;;;;;4997597;28;20119;-65
2023/12/27 11:25:55;;;;;;;4.37;1.77;;;;;;;;;;4978158;28;20045;-66
2023/12/27 11:28:23;;;;;;;5.57;2.03;;;;;;;;;;4997555;28;20230;-65
2023/12/27 11:30:50;;;;;;;7.30;2.15;;;;;;;;;;4978924;28;20065;-67
2023/12/27 11:33:21;;;;;;;3.72;2.05;;;;;;;;;;4978174;28;20053;-64
2023/12/27 11:35:51;;;;;;;5.43;2.15;;;;;;;;;;4972974;28;20056;-66
2023/12/27 11:38:20;;;;;;;5.05;1.85;;;;;;;;;;4976877;28;20132;-66
2023/12/27 11:40:48;;;;;;;6.45;2.00;;;;;;;;;;4976809;28;20070;-68
2023/12/27 11:43:20;;;;;;;8.15;2.35;;;;;;;;;;4999385;28;20061;-65
2023/12/27 11:45:58;;;;;;;6.72;2.47;;;;;;;;;;4952578;28;20065;-68
2023/12/27 11:48:25;;;;;;;3.70;2.00;;;;;;;;;;4980428;28;20046;-67
2023/12/27 11:50:55;;;;;;;7.03;2.13;;;;;;;;;;4979409;28;20045;-69
2023/12/27 11:53:24;;;;;;;9.57;3.03;;;;;;;;;;4977050;28;20182;-67
2023/12/27 11:55:52;;;;;;;7.00;2.38;;;;;;;;;;4969199;28;20054;-69
2023/12/27 11:58:30;;;;;;;5.18;2.00;;;;;;;;;;4979098;28;20057;-68
2023/12/27 12:00:57;;;;;;;6.25;2.22;;;;;;;;;;4978583;28;20058;-69
2023/12/27 12:04:21;;;;;;;5.85;2.53;;;;;;;;;;4980528;28;20169;-67
2023/12/27 12:07:31;;;;;;;4.00;1.90;;;;;;;;;;4971662;28;20121;-66
2023/12/27 12:09:59;;;;;;;2.58;1.33;;;;;;;;;;4978661;28;20132;-65
2023/12/27 12:12:27;;;;;;;4.93;1.55;;;;;;;;;;4980305;28;20050;-67
2023/12/27 12:14:55;;;;;;;4.93;1.90;;;;;;;;;;4974606;28;20049;-68
2023/12/27 12:17:22;;;;;;;5.65;1.80;;;;;;;;;;4974833;28;20058;-66
2023/12/27 12:19:51;;;;;;;7.70;2.30;;;;;;;;;;5005324;28;20053;-68
2023/12/27 12:22:21;;;;;;;6.90;1.52;;;;;;;;;;4987250;28;20207;-66
2023/12/27 12:24:48;;;;;;;5.03;2.35;;;;;;;;;;5005837;28;20062;-64
2023/12/27 12:27:16;;;;;;;5.30;1.95;;;;;;;;;;5001276;28;20161;-64
2023/12/27 12:29:46;;;;;;;5.45;1.52;;;;;;;;;;4998665;28;20132;-65
2023/12/27 12:32:13;;;;;;;5.57;2.30;;;;;;;;;;4992394;28;20126;-68
2023/12/27 12:38:32;;;;;;;3.67;1.60;;;;;;;;;;4991577;28;20129;-65
2023/12/27 12:40:59;;;;;;;4.10;1.70;;;;;;;;;;5001332;28;20112;-65
2023/12/27 12:43:27;;;;;;;5.15;2.30;;;;;;;;;;5031041;28;20045;-66
2023/12/27 12:45:57;;;;;;;5.00;1.92;;;;;;;;;;5028729;28;20049;-65
2023/12/27 12:48:25;;;;;;;4.43;1.73;;;;;;;;;;5000468;28;20051;-65
2023/12/27 12:51:09;;;;;;;3.42;1.30;;;;;;;;;;5020608;28;20069;-65
2023/12/27 12:53:36;;;;;;;5.03;1.48;;;;;;;;;;4998539;28;20060;-64
2023/12/27 12:56:03;;;;;;;9.32;3.88;;;;;;;;;;5014171;28;20084;-66
2023/12/27 13:05:16;;;;;;;7.40;2.00;;;;;;;;;;4995113;28;20045;-64
2023/12/27 13:07:43;;;;;;;5.45;1.77;;;;;;;;;;5025425;28;20056;-66
2023/12/27 13:10:10;;;;;;;5.82;2.20;;;;;;;;;;5000400;28;20045;-67
2023/12/27 13:12:37;;;;;;;6.63;2.53;;;;;;;;;;5006505;28;20045;-67
2023/12/27 13:15:04;;;;;;;5.20;1.83;;;;;;;;;;5021575;28;20056;-66
2023/12/27 13:17:34;;;;;;;7.20;2.33;;;;;;;;;;5024647;28;20059;-67
2023/12/27 13:20:01;;;;;;;5.07;1.65;;;;;;;;;;5028383;28;20111;-67
2023/12/27 13:22:29;;;;;;;7.70;2.03;;;;;;;;;;5026516;28;20045;-69
2023/12/27 13:25:09;;;;;;;3.85;1.45;;;;;;;;;;5003999;28;20053;-68
2023/12/27 13:27:39;;;;;;;7.97;1.63;;;;;;;;;;5029813;28;20261;-68
2023/12/27 13:30:19;;;;;;;4.60;1.63;;;;;;;;;;5002749;28;20053;-68
2023/12/27 13:32:46;;;;;;;5.45;1.80;;;;;;;;;;5019210;28;20060;-67
2023/12/27 13:35:15;;;;;;;4.65;1.83;;;;;;;;;;5003722;28;20041;-66
2023/12/27 13:37:47;;;;;;;6.03;2.10;;;;;;;;;;5001556;28;20069;-65
2023/12/27 13:40:15;;;;;;;8.52;2.28;;;;;;;;;;5003616;28;20057;-67
2023/12/27 13:42:49;;;;;;;9.48;2.00;;;;;;;;;;5001525;28;20050;-67
2023/12/27 13:45:20;;;;;;;4.90;1.60;;;;;;;;;;5020618;28;20053;-65
2023/12/27 13:47:47;;;;;;;;;;;;;;;;;;5014234;28;20049;-67
2023/12/27 13:50:14;;;;;;;7.60;1.85;;;;;;;;;;5016837;28;19932;-66
2023/12/27 13:52:41;;;;;;;3.65;1.58;;;;;;;;;;5028697;28;20104;-68
2023/12/27 13:55:10;;;;;;;6.68;2.47;;;;;;;;;;5022035;28;20053;-64
2023/12/27 13:57:43;;;;;;;8.35;1.90;;;;;;;;;;5028850;28;20037;-68
2023/12/27 14:00:13;;;;;;;5.70;2.05;;;;;;;;;;5020178;28;20076;-68
2023/12/27 14:02:40;;;;;;;6.93;2.00;;;;;;;;;;5001627;28;20056;-68
2023/12/27 14:05:08;;;;;;;5.35;1.65;;;;;;;;;;4998796;28;20149;-68
2023/12/27 14:07:36;;;;;;;10.68;2.85;;;;;;;;;;5000193;28;20045;-69
2023/12/27 14:10:18;;;;;;;5.70;2.22;;;;;;;;;;5019640;28;20081;-68
2023/12/27 14:12:45;;;;;;;5.53;1.77;;;;;;;;;;5018320;28;20058;-69
2023/12/27 14:15:13;;;;;;;6.32;1.98;;;;;;;;;;4993250;28;20060;-68
2023/12/27 14:17:45;;;;;;;6.18;2.08;;;;;;;;;;5015865;28;20137;-68
2023/12/27 14:20:13;;;;;;;6.38;1.60;;;;;;;;;;5002436;28;20053;-68
2023/12/27 14:22:44;;;;;;;5.47;2.10;;;;;;;;;;4998530;28;20062;-68
2023/12/27 14:25:12;;;;;;;7.65;2.60;;;;;;;;;;5000361;28;20042;-68
2023/12/27 14:27:44;;;;;;;5.47;2.03;;;;;;;;;;5017550;28;20060;-68
2023/12/27 14:30:11;;;;;;;4.57;1.83;;;;;;;;;;5019457;28;20499;-68
2023/12/27 14:32:45;;;;;;;5.40;2.15;;;;;;;;;;5009189;28;20042;-68
2023/12/27 14:35:13;;;;;;;3.60;1.55;;;;;;;;;;4999718;28;20156;-69
2023/12/27 14:37:52;;;;;;;7.00;1.80;;;;;;;;;;5007472;28;20195;-69
2023/12/27 14:40:20;;;;;;;7.85;1.98;;;;;;;;;;5019562;28;20049;-68
2023/12/27 14:42:58;;;;;;;9.60;2.28;;;;;;;;;;5034373;28;20060;-69
2023/12/27 14:48:08;;;;;;;5.47;1.90;;;;;;;;;;5037611;28;19925;-69
2023/12/27 14:50:44;;;;;;;5.55;1.70;;;;;;;;;;5051996;28;20052;-68
2023/12/27 14:53:12;;;;;;;5.05;2.20;;;;;;;;;;5038484;28;20080;-68
2023/12/27 14:55:47;;;;;;;4.65;1.98;;;;;;;;;;5039881;28;20072;-69
2023/12/27 14:58:18;;;;;;;3.65;1.52;;;;;;;;;;5020524;28;20135;-69
2023/12/27 15:00:54;;;;;;;7.15;1.67;;;;;;;;;;5016257;28;20053;-69